Time;durP1;ratioP1;P1;durP2;ratioP2;P2;SDS_P1;SDS_P2;PMS_P1;PMS_P2;Temp;Humidity;BMP_temperature;BMP_pressure;BME280_temperature;BME280_humidity;BME280_pressure;Samples;Min_cycle;Max_cycle;Signal;HPM_P1;HPM_P2
2022/03/25 00:02:23;;;;;;;26.80;15.17;;;5.70;99.90;;;;;;5116990;28;20166;-64
2022/03/25 00:04:50;;;;;;;27.23;15.37;;;5.70;99.90;;;;;;5117476;28;20179;-65
2022/03/25 00:07:16;;;;;;;26.47;15.30;;;5.60;99.90;;;;;;5116782;28;20241;-64
2022/03/25 00:09:41;;;;;;;21.03;10.50;;;5.50;99.90;;;;;;5116903;28;20174;-65
2022/03/25 00:12:07;;;;;;;23.43;11.43;;;5.60;99.90;;;;;;5116424;28;20543;-64
2022/03/25 00:14:34;;;;;;;22.93;14.63;;;5.50;99.90;;;;;;5117219;28;20170;-64
2022/03/25 00:17:00;;;;;;;29.93;12.10;;;5.50;99.90;;;;;;5116740;28;20174;-64
2022/03/25 00:19:25;;;;;;;25.43;14.07;;;5.30;99.90;;;;;;5116975;28;20252;-65
2022/03/25 00:21:52;;;;;;;30.97;15.93;;;5.40;99.90;;;;;;5116749;28;20172;-64
2022/03/25 00:24:18;;;;;;;29.17;15.33;;;5.30;99.90;;;;;;5116845;28;20222;-65
2022/03/25 00:26:44;;;;;;;27.13;16.00;;;5.30;99.90;;;;;;5116402;28;20247;-64
2022/03/25 00:29:09;;;;;;;30.13;15.60;;;5.20;99.90;;;;;;5117080;28;20240;-64
2022/03/25 00:31:35;;;;;;;26.53;11.17;;;5.20;99.90;;;;;;5116478;28;20622;-64
2022/03/25 00:34:00;;;;;;;19.83;11.87;;;5.20;99.90;;;;;;5116119;28;20621;-65
2022/03/25 00:36:26;;;;;;;26.10;15.40;;;5.10;99.90;;;;;;5127572;27;20636;-65
2022/03/25 00:38:52;;;;;;;25.47;15.50;;;5.20;99.90;;;;;;5116028;28;20255;-65
2022/03/25 00:41:18;;;;;;;28.10;15.70;;;5.10;99.90;;;;;;5116637;28;20606;-64
2022/03/25 00:43:46;;;;;;;32.27;16.40;;;5.10;99.90;;;;;;5097829;28;20188;-65
2022/03/25 00:46:12;;;;;;;30.97;16.03;;;5.00;99.90;;;;;;5097860;28;20225;-65
2022/03/25 00:48:39;;;;;;;23.97;12.67;;;5.10;99.90;;;;;;5115483;28;20254;-65
2022/03/25 00:51:05;;;;;;;24.27;14.10;;;5.00;99.90;;;;;;5116334;28;20166;-64
2022/03/25 00:53:32;;;;;;;25.57;14.10;;;5.00;99.90;;;;;;5116140;28;20224;-63
2022/03/25 00:56:00;;;;;;;26.60;14.37;;;5.00;99.90;;;;;;5116500;28;20502;-65
2022/03/25 00:58:26;;;;;;;26.20;14.50;;;5.00;99.90;;;;;;5115967;28;20164;-65
2022/03/25 01:00:51;;;;;;;26.70;15.57;;;5.00;99.90;;;;;;5098215;28;20182;-65
2022/03/25 01:03:17;;;;;;;25.97;14.57;;;5.00;99.90;;;;;;5115919;28;20151;-64
2022/03/25 01:05:42;;;;;;;25.40;14.97;;;4.80;99.90;;;;;;5099409;28;20269;-65
2022/03/25 01:08:09;;;;;;;28.17;15.47;;;4.90;99.90;;;;;;5099227;28;20202;-65
2022/03/25 01:10:36;;;;;;;32.80;16.50;;;4.80;99.90;;;;;;5115869;28;20162;-64
2022/03/25 01:13:03;;;;;;;30.03;15.07;;;4.80;99.90;;;;;;5116367;28;20165;-65
2022/03/25 01:15:29;;;;;;;29.93;16.13;;;4.80;99.90;;;;;;5116358;28;20182;-65
2022/03/25 01:17:54;;;;;;;23.23;14.90;;;4.90;99.90;;;;;;5118060;28;20260;-65
2022/03/25 01:20:20;;;;;;;26.87;14.93;;;4.80;99.90;;;;;;5119215;28;20169;-64
2022/03/25 01:22:45;;;;;;;25.17;14.90;;;4.80;99.90;;;;;;5133945;27;20168;-64
2022/03/25 01:25:11;;;;;;;27.43;15.60;;;4.70;99.90;;;;;;5118640;28;20172;-66
2022/03/25 01:27:37;;;;;;;32.00;15.50;;;4.60;99.90;;;;;;5119413;28;20203;-64
2022/03/25 01:30:04;;;;;;;25.70;14.67;;;4.50;99.90;;;;;;5120078;28;20165;-65
2022/03/25 01:32:30;;;;;;;26.73;15.43;;;4.60;99.90;;;;;;5116033;28;20167;-65
2022/03/25 01:34:56;;;;;;;27.50;15.63;;;4.50;99.90;;;;;;5130839;27;20656;-64
2022/03/25 01:37:23;;;;;;;27.60;15.23;;;4.50;99.90;;;;;;5117497;28;20184;-67
2022/03/25 01:39:49;;;;;;;29.73;15.60;;;4.60;99.90;;;;;;5121974;28;20225;-66
2022/03/25 01:42:15;;;;;;;26.47;14.80;;;4.60;99.90;;;;;;5124360;28;20222;-64
2022/03/25 01:44:41;;;;;;;32.20;15.60;;;4.60;99.90;;;;;;5122325;28;20224;-67
2022/03/25 01:47:08;;;;;;;28.90;16.17;;;4.50;99.90;;;;;;5122804;28;20291;-65
2022/03/25 01:49:35;;;;;;;31.50;16.03;;;4.60;99.90;;;;;;5115467;28;20481;-65
2022/03/25 01:52:02;;;;;;;30.20;16.00;;;4.50;99.90;;;;;;5097210;28;20250;-65
2022/03/25 01:54:31;;;;;;;26.53;15.63;;;4.40;99.90;;;;;;5096746;28;20170;-65
2022/03/25 01:57:02;;;;;;;27.87;15.07;;;4.30;99.90;;;;;;5115199;28;20172;-65
2022/03/25 01:59:29;;;;;;;32.00;15.10;;;4.40;99.90;;;;;;5114730;28;20154;-64
2022/03/25 02:01:55;;;;;;;30.80;16.57;;;4.30;99.90;;;;;;5114767;28;20205;-64
2022/03/25 02:04:21;;;;;;;26.13;15.47;;;4.20;99.90;;;;;;5114219;28;20661;-65
2022/03/25 02:06:47;;;;;;;29.27;15.77;;;4.10;99.90;;;;;;5114623;28;20161;-64
2022/03/25 02:09:13;;;;;;;29.40;16.20;;;4.10;99.90;;;;;;5114403;28;20176;-67
2022/03/25 02:11:40;;;;;;;26.90;15.20;;;4.10;99.90;;;;;;5114772;28;20197;-65
2022/03/25 02:14:06;;;;;;;28.90;16.57;;;4.00;99.90;;;;;;5114590;28;20166;-65
2022/03/25 02:16:42;;;;;;;28.47;15.87;;;4.10;99.90;;;;;;5121725;28;20158;-64
2022/03/25 02:19:08;;;;;;;31.63;16.17;;;4.00;99.90;;;;;;5123904;28;20229;-67
2022/03/25 02:21:38;;;;;;;28.10;16.27;;;4.00;99.90;;;;;;5116722;28;20601;-64
2022/03/25 02:24:06;;;;;;;29.47;16.47;;;4.00;99.90;;;;;;5114910;28;20167;-63
2022/03/25 02:26:33;;;;;;;28.53;15.83;;;4.00;99.90;;;;;;5115644;28;20158;-65
2022/03/25 02:29:01;;;;;;;30.83;16.10;;;3.90;99.90;;;;;;5115935;28;20163;-64
2022/03/25 02:31:27;;;;;;;28.87;16.57;;;4.00;99.90;;;;;;5118099;28;20163;-65
2022/03/25 02:34:00;;;;;;;31.60;15.63;;;3.90;99.90;;;;;;5105172;28;20224;-64
2022/03/25 02:36:26;;;;;;;31.70;14.63;;;3.90;99.90;;;;;;5124019;28;20189;-65
2022/03/25 02:38:52;;;;;;;31.10;15.83;;;3.90;99.90;;;;;;5102760;28;20178;-64
2022/03/25 02:41:18;;;;;;;28.53;16.43;;;3.70;99.90;;;;;;5096517;28;20508;-64
2022/03/25 02:43:43;;;;;;;26.93;15.93;;;3.80;99.90;;;;;;5114275;28;20168;-64
2022/03/25 02:46:10;;;;;;;27.07;15.17;;;3.60;99.90;;;;;;5114341;28;20240;-64
2022/03/25 02:48:36;;;;;;;27.53;15.47;;;3.80;99.90;;;;;;5114336;28;20225;-65
2022/03/25 02:51:02;;;;;;;27.27;15.33;;;3.70;99.90;;;;;;5096615;28;20178;-64
2022/03/25 02:53:28;;;;;;;29.07;15.03;;;3.70;99.90;;;;;;5114549;28;20342;-64
2022/03/25 02:55:55;;;;;;;26.37;15.63;;;3.80;99.90;;;;;;5114451;28;20166;-64
2022/03/25 02:58:21;;;;;;;28.43;16.83;;;3.70;99.90;;;;;;5118642;28;20208;-65
2022/03/25 03:00:47;;;;;;;26.43;15.90;;;3.70;99.90;;;;;;5118469;28;20154;-64
2022/03/25 03:03:12;;;;;;;28.63;15.70;;;3.60;99.90;;;;;;5118356;28;20199;-64
2022/03/25 03:05:39;;;;;;;25.47;15.00;;;3.70;99.90;;;;;;5118295;28;20186;-64
2022/03/25 03:08:05;;;;;;;29.93;15.50;;;3.60;99.90;;;;;;5118429;28;20189;-64
2022/03/25 03:10:32;;;;;;;26.03;16.13;;;3.50;99.90;;;;;;5117873;28;20163;-64
2022/03/25 03:12:59;;;;;;;29.00;15.83;;;3.40;99.90;;;;;;5099647;28;20174;-65
2022/03/25 03:15:25;;;;;;;28.63;14.87;;;3.50;99.90;;;;;;5118303;28;20155;-65
2022/03/25 03:17:51;;;;;;;30.80;15.07;;;3.50;99.90;;;;;;5118005;28;20462;-64
2022/03/25 03:20:19;;;;;;;26.93;16.27;;;3.50;99.90;;;;;;5117534;28;20171;-65
2022/03/25 03:22:44;;;;;;;29.70;16.70;;;3.50;99.90;;;;;;5118528;28;20174;-63
2022/03/25 03:25:11;;;;;;;31.63;17.10;;;3.40;99.90;;;;;;5099478;28;20238;-65
2022/03/25 03:27:37;;;;;;;30.07;15.97;;;3.40;99.90;;;;;;5117874;28;20515;-64
2022/03/25 03:30:08;;;;;;;26.73;15.53;;;3.40;99.90;;;;;;5118337;28;20165;-64
2022/03/25 03:32:35;;;;;;;29.13;15.80;;;3.30;99.90;;;;;;5120087;28;20158;-64
2022/03/25 03:35:01;;;;;;;34.50;17.20;;;3.40;99.90;;;;;;5121407;28;20198;-65
2022/03/25 03:37:27;;;;;;;29.50;16.10;;;3.30;99.90;;;;;;5122137;28;20265;-65
2022/03/25 03:39:53;;;;;;;30.27;15.47;;;3.30;99.90;;;;;;5121608;28;20208;-65
2022/03/25 03:42:19;;;;;;;29.73;16.43;;;3.20;99.90;;;;;;5123872;28;20170;-66
2022/03/25 03:44:45;;;;;;;31.57;16.13;;;3.30;99.90;;;;;;5124766;28;20546;-65
2022/03/25 03:47:11;;;;;;;26.13;15.73;;;3.30;99.90;;;;;;5107865;28;20197;-64
2022/03/25 03:49:37;;;;;;;27.47;14.83;;;3.30;99.90;;;;;;5127217;28;20159;-67
2022/03/25 03:52:05;;;;;;;25.97;16.00;;;3.30;99.90;;;;;;5125431;28;20167;-65
2022/03/25 03:54:32;;;;;;;25.13;15.23;;;3.20;99.90;;;;;;5123229;28;20159;-64
2022/03/25 03:56:58;;;;;;;24.37;16.13;;;3.30;99.90;;;;;;5124507;28;20179;-65
2022/03/25 03:59:24;;;;;;;26.30;15.50;;;3.20;99.90;;;;;;5127062;28;20158;-67
2022/03/25 04:01:50;;;;;;;27.90;16.33;;;3.20;99.90;;;;;;5127177;28;20158;-65
2022/03/25 04:04:16;;;;;;;28.97;15.73;;;3.20;99.90;;;;;;5125967;28;20166;-64
2022/03/25 04:06:41;;;;;;;28.83;15.57;;;3.20;99.90;;;;;;5126464;28;20158;-65
2022/03/25 04:09:07;;;;;;;30.57;17.97;;;3.20;99.90;;;;;;5127103;28;20219;-64
2022/03/25 04:11:32;;;;;;;30.83;16.03;;;3.10;99.90;;;;;;5125925;28;20256;-65
2022/03/25 04:13:58;;;;;;;30.90;16.97;;;3.10;99.90;;;;;;5119494;28;20190;-64
2022/03/25 04:16:24;;;;;;;26.43;16.03;;;3.00;99.90;;;;;;5117816;28;20166;-64
2022/03/25 04:18:49;;;;;;;27.60;16.23;;;3.00;99.90;;;;;;5117294;28;20178;-65
2022/03/25 04:21:15;;;;;;;30.67;16.67;;;3.00;99.90;;;;;;5116850;28;20158;-64
2022/03/25 04:23:41;;;;;;;28.50;16.07;;;3.00;99.90;;;;;;5117251;28;20221;-65
2022/03/25 04:26:06;;;;;;;30.90;16.87;;;3.00;99.90;;;;;;5116928;28;20574;-64
2022/03/25 04:28:32;;;;;;;31.43;16.37;;;3.00;99.90;;;;;;5132204;27;20206;-65
2022/03/25 04:30:58;;;;;;;30.40;16.27;;;3.10;99.90;;;;;;5132384;27;20265;-64
2022/03/25 04:33:24;;;;;;;26.33;15.33;;;3.10;99.90;;;;;;5116530;28;20158;-65
2022/03/25 04:35:49;;;;;;;28.27;16.60;;;3.00;99.90;;;;;;5116196;28;20247;-65
2022/03/25 04:38:15;;;;;;;28.83;16.03;;;2.90;99.90;;;;;;5116013;28;20163;-65
2022/03/25 04:40:42;;;;;;;31.43;16.37;;;2.90;99.90;;;;;;5116920;28;20188;-65
2022/03/25 04:43:08;;;;;;;29.83;15.50;;;2.90;99.90;;;;;;5116020;28;20176;-65
2022/03/25 04:45:34;;;;;;;30.50;15.50;;;2.80;99.90;;;;;;5116191;28;20170;-63
2022/03/25 04:48:01;;;;;;;26.47;16.57;;;2.80;99.90;;;;;;5115914;28;20193;-64
2022/03/25 04:50:27;;;;;;;28.77;16.10;;;2.80;99.90;;;;;;5116233;28;20477;-64
2022/03/25 04:52:54;;;;;;;22.47;14.43;;;2.80;99.90;;;;;;5116165;28;20228;-64
2022/03/25 04:55:20;;;;;;;31.77;17.67;;;2.80;99.90;;;;;;5116112;28;20174;-64
2022/03/25 04:57:46;;;;;;;27.67;15.80;;;2.70;99.90;;;;;;5116754;28;20166;-64
2022/03/25 05:00:13;;;;;;;32.47;16.40;;;2.60;99.90;;;;;;5116658;28;20173;-67
2022/03/25 05:02:39;;;;;;;27.20;15.23;;;2.60;99.90;;;;;;5098873;28;20508;-65
2022/03/25 05:05:05;;;;;;;30.33;16.13;;;2.60;99.90;;;;;;5110312;28;20269;-64
2022/03/25 05:07:31;;;;;;;26.23;15.40;;;2.60;99.90;;;;;;5094705;28;20255;-64
2022/03/25 05:09:58;;;;;;;27.97;15.30;;;2.50;99.90;;;;;;5095212;28;20503;-64
2022/03/25 05:12:24;;;;;;;30.97;17.47;;;2.60;99.90;;;;;;5095275;28;20155;-64
2022/03/25 05:14:50;;;;;;;30.57;16.30;;;2.60;99.90;;;;;;5077143;28;20175;-63
2022/03/25 05:17:15;;;;;;;33.47;16.90;;;2.60;99.90;;;;;;5095154;28;20163;-65
2022/03/25 05:19:42;;;;;;;32.53;17.67;;;2.60;99.90;;;;;;5076442;28;20182;-65
2022/03/25 05:22:08;;;;;;;31.53;16.83;;;2.50;99.90;;;;;;5085810;28;20687;-64
2022/03/25 05:24:33;;;;;;;31.27;15.90;;;2.40;99.90;;;;;;5074254;28;20175;-64
2022/03/25 05:26:59;;;;;;;30.40;15.87;;;2.80;99.90;;;;;;5073790;28;20638;-63
2022/03/25 05:29:26;;;;;;;28.57;17.17;;;2.50;99.90;;;;;;5074569;28;20547;-65
2022/03/25 05:31:51;;;;;;;28.47;16.13;;;2.40;99.90;;;;;;5074351;28;20202;-64
2022/03/25 05:34:17;;;;;;;29.43;17.03;;;2.50;99.90;;;;;;5074175;28;20185;-64
2022/03/25 05:36:43;;;;;;;28.23;16.30;;;2.60;99.90;;;;;;5074435;28;20184;-65
2022/03/25 05:39:09;;;;;;;27.57;15.47;;;2.60;99.90;;;;;;5074138;28;20191;-65
2022/03/25 05:41:34;;;;;;;27.30;16.13;;;2.60;99.90;;;;;;5074084;28;20187;-64
2022/03/25 05:44:00;;;;;;;27.17;16.07;;;2.70;99.90;;;;;;5074262;28;20181;-66
2022/03/25 05:46:26;;;;;;;25.73;15.47;;;2.80;99.90;;;;;;5074433;28;20301;-64
2022/03/25 05:48:51;;;;;;;31.23;16.37;;;2.80;99.90;;;;;;5055989;28;20203;-64
2022/03/25 05:51:17;;;;;;;28.87;15.87;;;2.80;99.90;;;;;;5073997;28;20570;-65
2022/03/25 05:53:43;;;;;;;31.53;15.17;;;2.70;99.90;;;;;;5073741;28;20235;-65
2022/03/25 05:56:10;;;;;;;26.77;15.13;;;2.80;99.90;;;;;;5074065;28;20171;-65
2022/03/25 05:58:36;;;;;;;29.67;14.93;;;2.80;99.90;;;;;;5073765;28;20160;-66
2022/03/25 06:01:04;;;;;;;29.77;15.47;;;3.00;99.90;;;;;;5073719;28;20159;-64
2022/03/25 06:03:32;;;;;;;27.40;15.00;;;3.00;99.90;;;;;;5073257;28;20162;-63
2022/03/25 06:05:58;;;;;;;30.43;15.63;;;3.00;99.90;;;;;;5073941;28;20181;-65
2022/03/25 06:08:24;;;;;;;27.00;15.13;;;3.00;99.90;;;;;;5073546;28;20203;-65
2022/03/25 06:10:50;;;;;;;22.40;14.90;;;3.00;99.90;;;;;;5073485;28;20175;-65
2022/03/25 06:13:16;;;;;;;30.00;15.70;;;3.00;99.90;;;;;;5056393;28;20230;-64
2022/03/25 06:15:42;;;;;;;26.73;14.70;;;3.10;99.90;;;;;;5073564;28;20210;-65
2022/03/25 06:18:08;;;;;;;27.80;15.93;;;3.10;99.90;;;;;;5089529;28;20171;-66
2022/03/25 06:20:34;;;;;;;27.73;15.43;;;3.20;99.90;;;;;;5073564;28;20221;-64
2022/03/25 06:23:00;;;;;;;26.73;15.33;;;3.40;99.90;;;;;;5073510;28;20471;-65
2022/03/25 06:25:26;;;;;;;24.67;13.83;;;3.40;99.90;;;;;;5073657;28;20653;-64
2022/03/25 06:27:59;;;;;;;30.93;14.87;;;3.50;99.90;;;;;;5073314;28;20287;-66
2022/03/25 06:30:27;;;;;;;26.50;15.00;;;3.40;99.90;;;;;;5073522;28;20247;-65
2022/03/25 06:32:54;;;;;;;32.73;14.97;;;3.60;99.90;;;;;;5073479;28;20164;-66
2022/03/25 06:35:20;;;;;;;27.33;15.03;;;3.60;99.90;;;;;;5073152;28;20160;-66
2022/03/25 06:37:46;;;;;;;22.20;13.23;;;3.70;99.90;;;;;;5073653;28;20451;-65
2022/03/25 06:40:13;;;;;;;25.60;13.37;;;3.80;99.90;;;;;;5073330;28;20178;-65
2022/03/25 06:42:39;;;;;;;23.97;14.47;;;4.00;99.90;;;;;;5073769;28;20305;-65
2022/03/25 06:45:07;;;;;;;27.83;13.60;;;4.10;99.90;;;;;;5078168;28;20156;-67
2022/03/25 06:47:34;;;;;;;25.87;13.27;;;4.20;99.90;;;;;;5076282;28;20196;-64
2022/03/25 06:50:00;;;;;;;30.87;13.07;;;4.30;99.90;;;;;;5073617;28;20159;-65
2022/03/25 06:52:26;;;;;;;21.70;10.27;;;4.30;99.90;;;;;;5072485;28;20231;-64
2022/03/25 06:54:52;;;;;;;20.73;11.97;;;4.40;99.90;;;;;;5074189;28;20156;-65
2022/03/25 06:57:18;;;;;;;22.70;13.60;;;4.50;99.90;;;;;;5076566;28;20583;-65
2022/03/25 06:59:44;;;;;;;21.00;13.10;;;4.60;99.90;;;;;;5075577;28;20217;-65
2022/03/25 07:02:11;;;;;;;26.43;13.80;;;4.70;99.90;;;;;;5057551;28;20191;-64
2022/03/25 07:04:38;;;;;;;24.10;13.97;;;4.80;99.90;;;;;;5075707;28;20606;-65
2022/03/25 07:07:05;;;;;;;23.67;13.17;;;5.00;99.90;;;;;;5058737;28;20210;-64
2022/03/25 07:09:31;;;;;;;23.63;14.03;;;4.90;99.90;;;;;;5082497;28;20174;-64
2022/03/25 07:11:58;;;;;;;23.63;10.80;;;5.10;99.90;;;;;;5083355;28;20166;-65
2022/03/25 07:14:23;;;;;;;18.80;10.23;;;5.20;99.90;;;;;;5079649;28;20160;-66
2022/03/25 07:16:49;;;;;;;24.27;10.53;;;5.30;99.90;;;;;;5073092;28;20191;-65
2022/03/25 07:19:15;;;;;;;20.30;9.30;;;5.20;99.90;;;;;;5076530;28;20169;-64
2022/03/25 07:21:40;;;;;;;23.50;12.90;;;5.20;99.90;;;;;;5077788;28;20272;-63
2022/03/25 07:24:06;;;;;;;22.30;10.40;;;5.40;99.90;;;;;;5060254;28;20170;-66
2022/03/25 07:26:32;;;;;;;26.97;10.40;;;5.40;99.90;;;;;;5075249;28;20160;-64
2022/03/25 07:28:58;;;;;;;20.30;10.93;;;5.40;99.90;;;;;;5073453;28;20201;-67
2022/03/25 07:31:28;;;;;;;19.93;10.67;;;5.50;99.90;;;;;;5072857;28;20171;-65
2022/03/25 07:33:54;;;;;;;20.03;10.10;;;5.70;99.90;;;;;;5072578;28;20162;-64
2022/03/25 07:36:20;;;;;;;21.53;10.27;;;5.80;99.90;;;;;;5072579;28;20187;-64
2022/03/25 07:38:46;;;;;;;19.63;10.20;;;6.10;99.90;;;;;;5073031;28;20171;-64
2022/03/25 07:41:11;;;;;;;18.80;10.63;;;6.20;99.90;;;;;;5072716;28;20168;-65
2022/03/25 07:43:38;;;;;;;17.50;10.53;;;6.40;99.90;;;;;;5073950;28;20165;-64
2022/03/25 07:46:04;;;;;;;18.43;10.27;;;6.20;99.90;;;;;;5079233;28;20236;-63
2022/03/25 07:48:30;;;;;;;22.63;10.97;;;6.10;99.90;;;;;;5096112;28;20188;-64
2022/03/25 07:50:55;;;;;;;19.63;9.90;;;6.30;99.90;;;;;;5096430;28;20690;-65
2022/03/25 07:53:21;;;;;;;17.57;10.60;;;6.60;99.90;;;;;;5096462;28;20220;-66
2022/03/25 07:55:50;;;;;;;16.93;10.17;;;6.80;99.90;;;;;;5096329;28;20167;-64
2022/03/25 07:58:19;;;;;;;24.90;11.60;;;6.70;99.90;;;;;;5078083;28;20249;-65
2022/03/25 08:00:45;;;;;;;18.20;10.47;;;6.90;99.90;;;;;;5096816;28;20163;-64
2022/03/25 08:03:11;;;;;;;20.80;10.90;;;7.00;99.90;;;;;;5097763;28;20183;-63
2022/03/25 08:05:38;;;;;;;18.20;10.33;;;7.20;99.90;;;;;;5097453;28;20193;-65
2022/03/25 08:08:04;;;;;;;21.23;10.57;;;7.30;99.90;;;;;;5096840;28;20190;-65
2022/03/25 08:10:31;;;;;;;22.00;11.33;;;7.40;99.90;;;;;;5098061;28;20568;-65
2022/03/25 08:12:58;;;;;;;21.23;12.07;;;7.60;99.90;;;;;;5100465;28;20238;-66
2022/03/25 08:15:25;;;;;;;20.83;12.13;;;7.60;99.90;;;;;;5096449;28;20185;-65
2022/03/25 08:18:05;;;;;;;18.43;11.93;;;7.70;99.90;;;;;;5095739;28;20688;-64
2022/03/25 08:20:39;;;;;;;25.87;13.63;;;8.10;99.90;;;;;;5096062;28;20166;-65
2022/03/25 08:23:08;;;;;;;26.67;12.90;;;8.10;99.90;;;;;;5096419;28;20166;-65
2022/03/25 08:28:19;;;;;;;24.13;13.57;;;8.60;99.90;;;;;;5095843;28;20543;-64
2022/03/25 08:30:46;;;;;;;33.83;14.73;;;8.90;99.90;;;;;;5096540;28;20162;-64
2022/03/25 08:33:12;;;;;;;27.07;13.77;;;8.90;99.90;;;;;;5098207;28;20257;-65
2022/03/25 08:35:39;;;;;;;28.57;14.60;;;9.30;99.90;;;;;;5099435;28;20248;-64
2022/03/25 08:38:05;;;;;;;25.67;14.30;;;9.20;99.70;;;;;;5099783;28;20183;-64
2022/03/25 08:40:34;;;;;;;24.23;13.47;;;9.40;98.40;;;;;;5099773;28;20151;-64
2022/03/25 08:43:01;;;;;;;32.53;15.47;;;9.50;97.90;;;;;;5095832;28;20155;-65
2022/03/25 08:45:27;;;;;;;32.13;14.13;;;9.50;97.50;;;;;;5096064;28;20159;-64
2022/03/25 08:47:54;;;;;;;25.17;13.67;;;9.60;96.40;;;;;;5095672;28;20282;-64
2022/03/25 08:50:22;;;;;;;30.37;14.90;;;9.80;95.30;;;;;;5095845;28;20167;-64
2022/03/25 08:52:49;;;;;;;23.80;13.40;;;10.00;93.90;;;;;;5095340;28;20225;-65
2022/03/25 08:55:16;;;;;;;26.30;14.40;;;10.30;93.30;;;;;;5095082;28;20600;-66
2022/03/25 08:57:41;;;;;;;25.07;14.77;;;10.40;91.90;;;;;;5095222;28;20162;-66
2022/03/25 09:00:10;;;;;;;30.77;13.43;;;10.20;91.10;;;;;;5095190;28;20508;-65
2022/03/25 09:02:37;;;;;;;26.10;14.07;;;10.20;92.60;;;;;;5090482;28;20183;-65
2022/03/25 09:05:04;;;;;;;24.63;14.00;;;10.30;91.90;;;;;;5095430;28;20167;-66
2022/03/25 09:07:30;;;;;;;29.90;14.07;;;10.50;91.20;;;;;;5095250;28;20281;-64
2022/03/25 09:09:56;;;;;;;24.57;14.27;;;10.60;91.20;;;;;;5095183;28;20190;-64
2022/03/25 09:12:21;;;;;;;28.13;14.63;;;10.80;90.40;;;;;;5095130;28;20514;-66
2022/03/25 09:14:47;;;;;;;28.53;13.70;;;11.00;90.20;;;;;;5095340;28;20167;-64
2022/03/25 09:17:12;;;;;;;26.23;13.27;;;11.30;88.20;;;;;;5095058;28;20166;-66
2022/03/25 09:19:38;;;;;;;28.07;14.40;;;11.60;86.60;;;;;;5094508;28;20230;-64
2022/03/25 09:22:04;;;;;;;22.87;14.10;;;11.70;84.80;;;;;;5095133;28;20170;-64
2022/03/25 09:24:30;;;;;;;34.47;15.67;;;11.80;83.80;;;;;;5076479;28;20250;-64
2022/03/25 09:26:55;;;;;;;28.13;14.50;;;12.10;83.60;;;;;;5095037;28;20219;-64
2022/03/25 09:29:21;;;;;;;25.93;14.03;;;12.10;81.30;;;;;;5095229;28;20174;-65
2022/03/25 09:31:46;;;;;;;24.77;13.60;;;12.10;80.40;;;;;;5095175;28;20187;-63
2022/03/25 09:36:57;;;;;;;26.40;14.27;;;12.20;75.80;;;;;;5102704;28;20604;-66
2022/03/25 09:39:23;;;;;;;30.73;14.97;;;12.40;76.40;;;;;;5095000;28;20550;-65
2022/03/25 09:41:49;;;;;;;23.20;13.80;;;12.50;75.70;;;;;;5094701;28;20218;-66
2022/03/25 09:44:16;;;;;;;31.80;14.80;;;12.70;75.30;;;;;;5076447;28;20261;-64
2022/03/25 09:46:42;;;;;;;27.37;14.97;;;12.90;73.60;;;;;;5094571;28;20155;-66
2022/03/25 09:49:09;;;;;;;28.43;14.77;;;12.90;72.30;;;;;;5095009;28;20240;-65
2022/03/25 09:51:36;;;;;;;25.93;13.47;;;13.20;72.40;;;;;;5094687;28;20167;-66
2022/03/25 09:54:05;;;;;;;26.00;14.00;;;13.20;70.50;;;;;;5095661;28;20222;-66
2022/03/25 09:56:31;;;;;;;26.37;13.03;;;13.50;68.90;;;;;;5099846;28;20159;-65
2022/03/25 09:58:57;;;;;;;31.23;13.63;;;13.60;65.40;;;;;;5081234;28;20526;-66
2022/03/25 10:01:22;;;;;;;26.37;13.33;;;13.60;62.10;;;;;;5079367;28;20182;-65
2022/03/25 10:03:48;;;;;;;26.50;13.40;;;13.60;61.80;;;;;;5096226;28;20163;-65
2022/03/25 10:06:15;;;;;;;25.50;14.03;;;13.80;60.80;;;;;;5096173;28;20226;-65
2022/03/25 10:08:42;;;;;;;29.23;14.70;;;14.00;58.80;;;;;;5097467;28;20618;-65
2022/03/25 10:11:23;;;;;;;22.47;12.07;;;14.00;58.50;;;;;;5097440;28;20647;-65
2022/03/25 10:14:08;;;;;;;32.53;14.63;;;13.90;56.50;;;;;;5096686;28;20170;-66
2022/03/25 10:16:33;;;;;;;23.87;12.63;;;14.30;56.90;;;;;;5096014;28;20163;-65
2022/03/25 10:18:59;;;;;;;26.03;12.57;;;14.30;55.90;;;;;;5094996;28;20167;-67
2022/03/25 10:21:25;;;;;;;18.67;11.30;;;14.50;55.30;;;;;;5094534;28;20254;-66
2022/03/25 10:23:51;;;;;;;24.63;11.30;;;14.70;54.00;;;;;;5094516;28;20173;-64
2022/03/25 10:26:17;;;;;;;15.10;8.77;;;14.60;53.00;;;;;;5096429;28;20245;-64
2022/03/25 10:28:45;;;;;;;18.60;9.77;;;14.50;51.90;;;;;;5096877;28;20202;-64
2022/03/25 10:31:17;;;;;;;19.70;9.67;;;14.50;52.00;;;;;;5098485;28;20154;-65
2022/03/25 10:33:48;;;;;;;21.87;10.30;;;14.50;51.70;;;;;;5098814;28;20235;-65
2022/03/25 10:36:20;;;;;;;19.00;10.10;;;14.60;52.00;;;;;;5099375;28;20170;-65
2022/03/25 10:39:05;;;;;;;18.33;9.93;;;14.90;52.40;;;;;;5099931;28;20178;-64
2022/03/25 10:41:40;;;;;;;18.13;10.20;;;14.90;50.80;;;;;;5099609;28;20159;-66
2022/03/25 10:44:08;;;;;;;24.23;10.80;;;14.50;51.30;;;;;;5098588;28;20169;-66
2022/03/25 10:46:41;;;;;;;26.00;9.83;;;14.70;51.60;;;;;;5098172;28;20207;-64
2022/03/25 10:49:09;;;;;;;31.00;12.30;;;14.90;51.60;;;;;;5096406;28;20626;-65
2022/03/25 10:51:37;;;;;;;26.07;11.17;;;14.90;51.70;;;;;;5096615;28;20232;-64
2022/03/25 10:54:08;;;;;;;22.23;11.77;;;14.90;51.70;;;;;;5099824;28;20229;-66
2022/03/25 10:56:43;;;;;;;20.07;10.47;;;14.90;52.40;;;;;;5100972;28;20273;-65
2022/03/25 10:59:37;;;;;;;22.43;9.97;;;15.00;53.10;;;;;;5098848;28;20601;-66
2022/03/25 11:02:05;;;;;;;16.63;8.90;;;15.10;52.30;;;;;;5098232;28;20429;-65
2022/03/25 11:04:31;;;;;;;17.33;8.17;;;15.10;50.90;;;;;;5098050;28;20177;-65
2022/03/25 11:06:58;;;;;;;16.60;7.70;;;15.10;50.00;;;;;;5099399;28;20163;-68
2022/03/25 11:09:26;;;;;;;16.43;7.67;;;15.00;49.70;;;;;;5100015;28;20550;-65
2022/03/25 11:11:52;;;;;;;18.73;8.60;;;14.90;50.50;;;;;;5100142;28;20170;-65
2022/03/25 11:14:19;;;;;;;22.87;9.17;;;15.20;50.70;;;;;;5099751;28;20195;-68
2022/03/25 11:16:47;;;;;;;21.27;8.03;;;15.40;50.90;;;;;;5101582;28;20182;-65
2022/03/25 11:19:14;;;;;;;26.50;9.00;;;15.50;50.00;;;;;;5106087;28;20159;-69
2022/03/25 11:21:42;;;;;;;13.47;6.80;;;15.70;49.00;;;;;;5106251;28;20171;-65
2022/03/25 11:24:31;;;;;;;17.67;7.50;;;15.60;47.30;;;;;;5087247;28;20208;-66
2022/03/25 11:27:05;;;;;;;12.33;7.07;;;15.40;44.90;;;;;;5103602;28;20628;-66
2022/03/25 11:29:32;;;;;;;12.60;7.17;;;15.30;44.80;;;;;;5083649;28;20214;-66
2022/03/25 11:32:14;;;;;;;17.73;7.67;;;15.20;46.00;;;;;;5098689;28;20163;-65
2022/03/25 11:34:55;;;;;;;18.40;8.77;;;15.20;46.20;;;;;;5097228;28;20567;-65
2022/03/25 11:37:23;;;;;;;13.67;8.07;;;15.20;47.90;;;;;;5097260;28;20224;-63
2022/03/25 11:40:14;;;;;;;13.00;7.70;;;15.20;48.10;;;;;;5095800;28;20174;-67
2022/03/25 11:42:42;;;;;;;21.97;8.57;;;15.20;48.40;;;;;;5117901;28;20568;-70
2022/03/25 11:45:32;;;;;;;117.17;63.33;;;15.10;48.60;;;;;;5117915;28;20167;-70
2022/03/25 11:48:04;;;;;;;29.23;17.30;;;15.60;52.50;;;;;;5119962;28;20613;-70
2022/03/25 11:50:35;;;;;;;18.43;9.07;;;15.70;51.50;;;;;;5121531;28;20170;-64
2022/03/25 11:53:10;;;;;;;17.37;8.67;;;15.70;49.60;;;;;;5109618;28;20238;-64
2022/03/25 11:55:56;;;;;;;19.70;9.47;;;15.90;49.20;;;;;;5097004;28;20162;-65
2022/03/25 11:58:22;;;;;;;15.97;9.53;;;15.90;49.20;;;;;;5098155;28;20198;-65
2022/03/25 12:00:54;;;;;;;18.03;8.13;;;15.80;48.80;;;;;;5097557;28;20167;-64
2022/03/25 12:03:38;;;;;;;27.90;10.03;;;16.00;48.60;;;;;;5079144;28;20290;-66
2022/03/25 12:06:04;;;;;;;23.67;10.43;;;15.90;49.20;;;;;;5098858;28;20163;-66
2022/03/25 12:08:32;;;;;;;21.53;10.50;;;15.70;50.40;;;;;;5102972;28;20257;-65
2022/03/25 12:11:04;;;;;;;20.37;10.27;;;15.70;50.90;;;;;;5104797;28;20175;-66
2022/03/25 12:13:55;;;;;;;18.90;10.63;;;15.60;50.70;;;;;;5102646;28;20154;-66
2022/03/25 12:16:45;;;;;;;23.90;11.77;;;15.90;51.60;;;;;;5102859;28;20155;-66
2022/03/25 12:19:28;;;;;;;19.37;11.27;;;16.00;51.40;;;;;;5103211;28;20163;-64
2022/03/25 12:21:58;;;;;;;20.40;11.10;;;15.80;51.50;;;;;;5105058;28;20167;-66
2022/03/25 12:24:24;;;;;;;21.83;12.17;;;15.70;51.90;;;;;;5099999;28;20167;-69
2022/03/25 12:27:02;;;;;;;20.97;12.17;;;15.60;52.00;;;;;;5100528;28;20163;-64
2022/03/25 12:29:29;;;;;;;23.07;12.00;;;15.60;52.20;;;;;;5099867;28;20170;-65
2022/03/25 12:31:55;;;;;;;21.70;11.20;;;15.70;52.20;;;;;;5103141;28;20163;-64
2022/03/25 12:34:39;;;;;;;19.93;11.80;;;15.80;51.50;;;;;;5104283;28;20197;-65
2022/03/25 12:37:09;;;;;;;20.37;11.67;;;15.90;51.70;;;;;;5096772;28;20190;-64
2022/03/25 12:39:35;;;;;;;169.70;54.30;;;16.10;51.60;;;;;;5095911;28;20166;-71
2022/03/25 12:42:10;;;;;;;212.03;70.30;;;16.20;57.30;;;;;;5097875;28;20501;-77
2022/03/25 12:44:37;;;;;;;67.60;29.67;;;16.60;56.20;;;;;;5098763;28;20192;-78